createdAt,value
2019-01-05T00:04:34.421Z,100817.95
2019-01-05T00:09:56.103Z,100796.58
2019-01-05T00:15:26.741Z,100806.03
2019-01-05T00:20:56.250Z,100796.92
2019-01-05T00:26:13.529Z,100802.89
2019-01-05T00:31:34.967Z,100802.89
2019-01-05T00:37:00.696Z,100800.27
2019-01-05T00:42:23.498Z,100800.27
2019-01-05T00:47:48.826Z,100772.64
2019-01-05T00:53:10.587Z,100772.64
2019-01-05T00:58:27.046Z,100754.87
2019-01-05T01:03:49.521Z,100763.34
2019-01-05T01:09:11.708Z,100748.35
2019-01-05T01:14:34.870Z,100756.06
2019-01-05T01:19:58.828Z,100756.33
2019-01-05T01:25:20.861Z,100743.84
2019-01-05T01:30:44.353Z,100734.05
2019-01-05T01:36:08.670Z,100715.11
2019-01-05T01:41:50.394Z,100724.25
2019-01-05T01:47:23.195Z,100704.72
2019-01-05T01:52:49.590Z,100709.03
2019-01-05T01:58:10.869Z,100679.81
2019-01-05T02:03:37.225Z,100687.81
2019-01-05T02:09:09.247Z,100655.00
2019-01-05T02:14:28.213Z,100632.61
2019-01-05T02:20:13.306Z,100632.61
2019-01-05T02:26:03.655Z,100613.61
2019-01-05T02:32:05.894Z,100605.84
2019-01-05T02:38:03.059Z,100586.52
2019-01-05T02:44:30.991Z,100580.53
2019-01-05T02:50:36.742Z,100574.12
2019-01-05T02:56:26.473Z,100539.52
2019-01-05T03:02:12.123Z,100546.81
2019-01-05T03:08:31.323Z,100539.81
2019-01-05T03:14:19.480Z,100532.23
2019-01-05T03:20:28.589Z,100515.41
2019-01-05T03:26:37.925Z,100515.99
2019-01-05T03:32:24.948Z,100496.57
2019-01-05T03:38:32.964Z,100490.98
2019-01-05T03:44:25.740Z,100490.98
2019-01-05T03:50:32.527Z,100465.09
2019-01-05T03:56:27.501Z,100461.83
2019-01-05T04:02:27.503Z,100452.32
2019-01-05T04:08:23.647Z,100434.48
2019-01-05T04:14:30.753Z,100428.16
2019-01-05T04:20:40.647Z,100421.61
2019-01-05T04:26:56.431Z,100421.61
2019-01-05T04:33:05.134Z,100406.75
2019-01-05T04:38:56.502Z,100402.50
2019-01-05T04:44:56.048Z,100386.53
2019-01-05T04:50:43.267Z,100385.49
2019-01-05T04:56:42.035Z,100384.33
2019-01-05T05:02:46.506Z,100377.64
2019-01-05T05:08:53.654Z,100364.52
2019-01-05T05:14:55.668Z,100365.67
2019-01-05T05:20:54.349Z,100353.22
2019-01-05T05:26:46.647Z,100369.92
2019-01-05T05:32:44.153Z,100369.92
2019-01-05T05:38:59.300Z,100375.22
2019-01-05T05:44:50.815Z,100375.22
2019-01-05T05:51:03.419Z,100356.45
2019-01-05T05:57:03.690Z,100359.98
2019-01-05T06:03:00.685Z,100349.15
2019-01-05T06:09:09.732Z,100359.80
2019-01-05T06:15:03.286Z,100362.95
2019-01-05T06:20:51.609Z,100365.86
2019-01-05T06:26:52.948Z,100351.20
2019-01-05T06:33:13.674Z,100359.38
2019-01-05T06:39:25.205Z,100359.38
2019-01-05T06:45:30.452Z,100360.72
2019-01-05T06:51:40.336Z,100361.53
2019-01-05T06:57:45.299Z,100363.73
2019-01-05T07:03:57.412Z,100363.73
2019-01-05T07:10:07.206Z,100360.25
2019-01-05T07:15:57.523Z,100365.86
2019-01-05T07:21:59.515Z,100390.58
2019-01-05T07:28:15.390Z,100384.77
2019-01-05T07:34:17.581Z,100390.97
2019-01-05T07:40:24.313Z,100376.97
2019-01-05T07:46:23.703Z,100385.13
2019-01-05T07:52:34.748Z,100387.84
2019-01-05T07:58:59.281Z,100395.05
2019-01-05T08:04:52.459Z,100403.21
2019-01-05T08:10:54.239Z,100408.96
2019-01-05T08:17:05.711Z,100413.52
2019-01-05T08:23:07.713Z,100422.45
2019-01-05T08:29:15.664Z,100422.45
2019-01-05T08:35:13.868Z,100409.50
2019-01-05T08:41:13.641Z,100409.50
2019-01-05T08:47:30.671Z,100417.89
2019-01-05T08:53:33.552Z,100467.95
2019-01-05T08:59:51.752Z,100436.80
2019-01-05T09:05:48.148Z,100440.42
2019-01-05T09:11:55.646Z,100452.30
2019-01-05T09:17:58.938Z,100472.00
2019-01-05T09:24:01.646Z,100476.78
2019-01-05T09:30:02.841Z,100481.47
2019-01-05T09:35:48.612Z,100481.00
2019-01-05T09:42:12.032Z,100481.00
2019-01-05T09:48:28.115Z,100469.30
2019-01-05T09:54:15.625Z,100489.28
2019-01-05T10:00:38.581Z,100497.36
2019-01-05T10:06:36.523Z,100488.59
2019-01-05T10:12:37.428Z,100482.47
2019-01-05T10:18:35.776Z,100482.75
2019-01-05T10:24:33.515Z,100474.30
2019-01-05T10:30:34.910Z,100491.28
2019-01-05T10:36:40.971Z,100496.77
2019-01-05T10:42:49.602Z,100491.75
2019-01-05T10:48:48.788Z,100491.75
2019-01-05T10:54:54.967Z,100489.00
2019-01-05T11:01:11.211Z,100497.84
2019-01-05T11:07:07.445Z,100481.98
2019-01-05T11:13:28.351Z,100472.35
2019-01-05T11:19:35.364Z,100485.22
2019-01-05T11:25:44.801Z,100484.96
2019-01-05T11:31:39.253Z,100498.88
2019-01-05T11:37:44.197Z,100503.02
2019-01-05T11:43:51.441Z,100487.74
2019-01-05T11:49:53.644Z,100485.91
2019-01-05T11:56:02.452Z,100494.61
2019-01-05T12:01:58.012Z,100489.98
2019-01-05T12:08:05.574Z,100501.07
2019-01-05T12:13:52.953Z,100508.36
2019-01-05T12:20:09.061Z,100517.98
2019-01-05T12:26:44.413Z,100525.89
2019-01-05T12:32:53.950Z,100533.56
2019-01-05T12:39:46.666Z,100533.56
2019-01-05T12:51:42.573Z,100545.87
2019-01-05T12:57:54.542Z,100530.59
2019-01-05T13:03:49.251Z,100549.12
2019-01-05T13:10:02.841Z,100549.99
2019-01-05T13:15:58.307Z,100554.41
2019-01-05T13:22:12.405Z,100552.11
2019-01-05T13:28:05.459Z,100563.45
2019-01-05T13:33:57.844Z,100566.60
2019-01-05T13:39:49.567Z,100566.60
2019-01-05T13:45:41.969Z,100578.25
2019-01-05T13:52:05.108Z,100574.59
2019-01-05T13:57:30.489Z,100601.70
2019-01-05T14:02:52.426Z,100592.66
2019-01-05T14:08:21.635Z,100577.10
2019-01-05T14:13:37.941Z,100605.91
2019-01-05T14:18:59.475Z,100605.91
2019-01-05T14:24:32.494Z,100609.95
2019-01-05T14:29:54.129Z,100616.47
2019-01-05T14:35:20.230Z,100616.47
2019-01-05T14:40:48.977Z,100639.34
2019-01-05T14:46:18.084Z,100639.34
2019-01-05T14:51:41.128Z,100617.75
2019-01-05T14:57:13.505Z,100631.95
2019-01-05T15:02:35.583Z,100633.99
2019-01-05T15:07:59.470Z,100646.55
2019-01-05T15:13:22.467Z,100645.89
2019-01-05T15:18:44.131Z,100645.89
2019-01-05T15:24:16.415Z,100625.12
2019-01-05T15:29:45.343Z,100627.23
2019-01-05T15:35:21.349Z,100643.10
2019-01-05T15:40:51.641Z,100643.10
2019-01-05T15:46:19.150Z,100653.48
2019-01-05T15:51:42.655Z,100653.48
2019-01-05T15:57:08.702Z,100647.89
2019-01-05T16:02:30.691Z,100662.04
2019-01-05T16:07:52.750Z,100663.38
2019-01-05T16:13:14.858Z,100663.38
2019-01-05T16:18:36.662Z,100697.55
2019-01-05T16:23:58.226Z,100711.09
2019-01-05T16:29:20.268Z,100691.30
2019-01-05T16:34:52.321Z,100707.52
2019-01-05T16:40:13.673Z,100707.52
2019-01-05T16:45:26.278Z,100692.60
2019-01-05T16:50:47.892Z,100719.78
2019-01-05T16:56:11.270Z,100700.72
2019-01-05T17:01:30.777Z,100706.86
2019-01-05T17:06:53.741Z,100698.78
2019-01-05T17:12:15.762Z,100700.49
2019-01-05T17:17:39.677Z,100692.05
2019-01-05T17:23:01.634Z,100691.69
2019-01-05T17:28:35.176Z,100687.66
2019-01-05T17:34:16.662Z,100687.66
2019-01-05T17:39:41.580Z,100687.71
2019-01-05T17:45:10.876Z,100687.71
2019-01-05T17:50:32.583Z,100705.95
2019-01-05T17:55:56.977Z,100705.95
2019-01-05T18:01:18.696Z,100714.38
2019-01-05T18:06:40.688Z,100718.30
2019-01-05T18:12:02.449Z,100711.84
2019-01-05T18:17:43.911Z,100701.67
2019-01-05T18:23:08.717Z,100719.05
2019-01-05T18:28:36.709Z,100707.45
2019-01-05T18:34:05.967Z,100726.52
2019-01-05T18:39:28.589Z,100716.49
2019-01-05T18:44:54.752Z,100717.25
2019-01-05T18:50:23.808Z,100719.04
2019-01-05T18:56:00.076Z,100718.92
2019-01-05T19:01:20.435Z,100718.92
2019-01-05T19:06:50.287Z,100721.97
2019-01-05T19:12:20.101Z,100721.97
2019-01-05T19:17:41.656Z,100720.18
2019-01-05T19:22:55.592Z,100720.18
2019-01-05T19:28:34.053Z,100725.42
2019-01-05T19:33:57.083Z,100734.59
2019-01-05T19:39:25.052Z,100738.95
2019-01-05T19:44:51.137Z,100730.18
2019-01-05T19:50:13.012Z,100752.57
2019-01-05T19:55:46.527Z,100757.84
2019-01-05T20:01:02.722Z,100757.84
2019-01-05T20:06:24.431Z,100772.03
2019-01-05T20:11:46.380Z,100772.77
2019-01-05T20:17:08.810Z,100781.14
2019-01-05T20:22:30.429Z,100783.51
2019-01-05T20:28:04.665Z,100783.51
2019-01-05T20:33:39.296Z,100781.32
2019-01-05T20:39:10.973Z,100783.98
2019-01-05T20:44:35.175Z,100781.99
2019-01-05T20:50:10.546Z,100786.58
2019-01-05T20:55:32.156Z,100786.58
2019-01-05T21:00:54.163Z,100789.95
2019-01-05T21:06:15.911Z,100789.95
2019-01-05T21:11:37.871Z,100799.53
2019-01-05T21:16:57.334Z,100804.14
2019-01-05T21:22:18.936Z,100809.53
2019-01-05T21:27:51.250Z,100800.63
2019-01-05T21:33:25.791Z,100800.63
2019-01-05T21:38:45.602Z,100818.56
2019-01-05T21:44:19.716Z,100829.00
2019-01-05T21:49:41.607Z,100823.02
2019-01-05T21:55:13.929Z,100846.71
2019-01-05T22:00:39.969Z,100851.38
2019-01-05T22:06:03.075Z,100831.31
2019-01-05T22:11:19.380Z,100851.83
2019-01-05T22:16:41.082Z,100860.69
2019-01-05T22:22:02.655Z,100857.97
2019-01-05T22:27:25.733Z,100860.27
2019-01-05T22:32:47.645Z,100857.02
2019-01-05T22:38:04.094Z,100856.03
2019-01-05T22:43:30.145Z,100856.03
2019-01-05T22:49:04.614Z,100861.68
2019-01-05T22:54:27.637Z,100861.68
2019-01-05T23:00:06.235Z,100872.86
2019-01-05T23:05:29.251Z,100878.05
2019-01-05T23:11:04.950Z,100884.56
2019-01-05T23:16:26.982Z,100894.39
2019-01-05T23:21:49.798Z,100894.39
2019-01-05T23:27:18.898Z,100900.16
2019-01-05T23:32:51.273Z,100907.05
2019-01-05T23:38:12.937Z,100907.41
2019-01-05T23:43:35.958Z,100924.29
2019-01-05T23:48:58.747Z,100924.29
2019-01-05T23:54:23.981Z,100931.65
2019-01-05T23:59:45.855Z,100931.65
